Station Historical Data
 
Daily Summary for January 16, 2019 Units:  Both    English   Metric
« Previous Day
Next Day »
Daily Weekly Monthly Yearly Custom
  Current: High: Low: Average:
Temperature: 52.9 °F /  11.6 °C 59.5 °F /  15.3 °C 49.5 °F /  9.7 °C 54.1 °F /  12.3 °C
Dew Point: 47.8 °F /  8.8 °C 49.1 °F /  9.5 °C 44.8 °F /  7.1 °C 46.6 °F /  8.1 °C
Humidity: 83% 85% 64% 76%
Wind Speed: 2mph /  3.2km/h 10mph /  16.1km/h - 3.3mph /  5.3km/h
Wind Gust: 7mph /  11.3km/h 18mph /  29.0km/h - -
WindSouth - - SSW
Pressure: 30 in /  1014.6 hPa 30.1 in /  1019.2 hPa 30 in /  1014.2 hPa -
Precipitation: 0 in /  0.0 mm      
Historical Graphs
 
 
Tabular Data for January 16, 2019
Time Temperature Dew Point Pressure Wind Wind Speed Wind Gust Humidity Rainfall Rate (Hourly) solar Conditions
00:00 52.2 °F /  11.2 °C 46.6 °F /  8.1 °C 30.1in /  1019.2hPa Calm   3mph /  4.8km/h 81% 0in /  0.0mm 0.00 W/m2 BKN
00:05 52.2 °F /  11.2 °C 46.6 °F /  8.1 °C 30.1in /  1019.2hPa SW 1mph /  1.6km/h 2mph /  3.2km/h 81% 0in /  0.0mm 0.00 W/m2 BKN
00:10 52.2 °F /  11.2 °C 46.6 °F /  8.1 °C 30.1in /  1019.2hPa Calm   4mph /  6.4km/h 81% 0in /  0.0mm 0.00 W/m2 BKN
00:15 52.2 °F /  11.2 °C 46.6 °F /  8.1 °C 30.1in /  1019.2hPa SW 1mph /  1.6km/h 3mph /  4.8km/h 81% 0in /  0.0mm 0.00 W/m2 BKN
00:20 52.3 °F /  11.3 °C 46.6 °F /  8.1 °C 30.1in /  1019.1hPa SW 2mph /  3.2km/h 5mph /  8.0km/h 81% 0in /  0.0mm 0.00 W/m2 BKN
00:25 52.2 °F /  11.2 °C 46.4 °F /  8.0 °C 30.1in /  1019.1hPa SW 2mph /  3.2km/h 5mph /  8.0km/h 81% 0in /  0.0mm 0.00 W/m2 BKN
00:30 52.2 °F /  11.2 °C 46.4 °F /  8.0 °C 30.1in /  1019.0hPa SW 2mph /  3.2km/h 6mph /  9.7km/h 81% 0in /  0.0mm 0.00 W/m2 BKN
00:35 52.2 °F /  11.2 °C 46.6 °F /  8.1 °C 30.1in /  1019.0hPa SW 1mph /  1.6km/h 8mph /  12.9km/h 81% 0in /  0.0mm 0.00 W/m2 BKN
00:40 52.3 °F /  11.3 °C 46.8 °F /  8.2 °C 30.1in /  1018.9hPa SW 3mph /  4.8km/h 6mph /  9.7km/h 81% 0in /  0.0mm 0.00 W/m2 BKN
00:45 52.3 °F /  11.3 °C 46.8 °F /  8.2 °C 30.1in /  1018.8hPa SW 3mph /  4.8km/h 6mph /  9.7km/h 81% 0in /  0.0mm 0.00 W/m2 BKN
00:50 52.5 °F /  11.4 °C 46.9 °F /  8.3 °C 30.1in /  1018.8hPa SSW 1mph /  1.6km/h 5mph /  8.0km/h 81% 0in /  0.0mm 0.00 W/m2 BKN
00:55 52.5 °F /  11.4 °C 46.6 °F /  8.1 °C 30.1in /  1018.7hPa SW 2mph /  3.2km/h 6mph /  9.7km/h 80% 0in /  0.0mm 0.00 W/m2 BKN
01:00 52.5 °F /  11.4 °C 46.8 °F /  8.2 °C 30.1in /  1018.7hPa SW 1mph /  1.6km/h 4mph /  6.4km/h 81% 0in /  0.0mm 0.00 W/m2 BKN
01:05 52.5 °F /  11.4 °C 46.6 °F /  8.1 °C 30.1in /  1018.6hPa Calm   3mph /  4.8km/h 80% 0in /  0.0mm 0.00 W/m2 BKN
01:10 52.5 °F /  11.4 °C 46.6 °F /  8.1 °C 30.1in /  1018.6hPa Calm   3mph /  4.8km/h 80% 0in /  0.0mm 0.00 W/m2 BKN
01:15 52.3 °F /  11.3 °C 46.4 °F /  8.0 °C 30.1in /  1018.5hPa Calm   6mph /  9.7km/h 80% 0in /  0.0mm 0.00 W/m2 BKN
01:20 52.2 °F /  11.2 °C 46.2 °F /  7.9 °C 30.1in /  1018.5hPa Calm   1mph /  1.6km/h 80% 0in /  0.0mm 0.00 W/m2 BKN
01:25 52.2 °F /  11.2 °C 46 °F /  7.8 °C 30.1in /  1018.4hPa South 1mph /  1.6km/h 2mph /  3.2km/h 80% 0in /  0.0mm 0.00 W/m2 BKN
01:30 52 °F /  11.1 °C 46.2 °F /  7.9 °C 30.1in /  1018.4hPa SSE 1mph /  1.6km/h 2mph /  3.2km/h 81% 0in /  0.0mm 0.00 W/m2 BKN
01:35 51.6 °F /  10.9 °C 46 °F /  7.8 °C 30.1in /  1018.4hPa SSE 1mph /  1.6km/h 4mph /  6.4km/h 81% 0in /  0.0mm 0.00 W/m2 BKN
01:40 51.4 °F /  10.8 °C 45.9 °F /  7.7 °C 30.1in /  1018.4hPa SE 1mph /  1.6km/h 3mph /  4.8km/h 81% 0in /  0.0mm 0.00 W/m2 BKN
01:45 51.1 °F /  10.6 °C 45.5 °F /  7.5 °C 30.1in /  1018.4hPa Calm   2mph /  3.2km/h 81% 0in /  0.0mm 0.00 W/m2 BKN
01:50 51.1 °F /  10.6 °C 45.3 °F /  7.4 °C 30.1in /  1018.3hPa SE 1mph /  1.6km/h 2mph /  3.2km/h 81% 0in /  0.0mm 0.00 W/m2 BKN
01:55 50.7 °F /  10.4 °C 45.1 °F /  7.3 °C 30.1in /  1018.3hPa SE 1mph /  1.6km/h 2mph /  3.2km/h 81% 0in /  0.0mm 0.00 W/m2 BKN
02:00 50.7 °F /  10.4 °C 45.3 °F /  7.4 °C 30.1in /  1018.3hPa SE 1mph /  1.6km/h 2mph /  3.2km/h 82% 0in /  0.0mm 0.00 W/m2 BKN
02:05 50.5 °F /  10.3 °C 45 °F /  7.2 °C 30.1in /  1018.3hPa Calm   2mph /  3.2km/h 81% 0in /  0.0mm 0.00 W/m2 BKN
02:10 50.5 °F /  10.3 °C 45.1 °F /  7.3 °C 30.1in /  1018.3hPa Calm   1mph /  1.6km/h 82% 0in /  0.0mm 0.00 W/m2 BKN
02:15 50.4 °F /  10.2 °C 45.1 °F /  7.3 °C 30.1in /  1018.2hPa Calm   1mph /  1.6km/h 82% 0in /  0.0mm 0.00 W/m2 BKN
02:20 50.4 °F /  10.2 °C 45 °F /  7.2 °C 30.1in /  1018.2hPa Calm   3mph /  4.8km/h 82% 0in /  0.0mm 0.00 W/m2 SCT
02:25 50.2 °F /  10.1 °C 45.1 °F /  7.3 °C 30.1in /  1018.3hPa NNE 1mph /  1.6km/h 2mph /  3.2km/h 83% 0in /  0.0mm 0.00 W/m2 SCT
02:30 50.2 °F /  10.1 °C 45.1 °F /  7.3 °C 30.1in /  1018.3hPa Calm     83% 0in /  0.0mm 0.00 W/m2 SCT
02:35 50 °F /  10.0 °C 45.1 °F /  7.3 °C 30.1in /  1018.2hPa Calm   1mph /  1.6km/h 83% 0in /  0.0mm 0.00 W/m2 SCT
02:40 49.8 °F /  9.9 °C 45 °F /  7.2 °C 30.1in /  1018.3hPa North 1mph /  1.6km/h 3mph /  4.8km/h 83% 0in /  0.0mm 0.00 W/m2 SCT
02:45 49.8 °F /  9.9 °C 45 °F /  7.2 °C 30.1in /  1018.3hPa NNE 2mph /  3.2km/h 3mph /  4.8km/h 83% 0in /  0.0mm 0.00 W/m2 SCT
02:50 49.8 °F /  9.9 °C 45 °F /  7.2 °C 30.1in /  1018.3hPa Calm   3mph /  4.8km/h 83% 0in /  0.0mm 0.00 W/m2 FEW
02:55 49.8 °F /  9.9 °C 44.8 °F /  7.1 °C 30.1in /  1018.2hPa NE 1mph /  1.6km/h 2mph /  3.2km/h 83% 0in /  0.0mm 0.00 W/m2 FEW
03:00 49.6 °F /  9.8 °C 44.8 °F /  7.1 °C 30.1in /  1018.3hPa East 1mph /  1.6km/h 2mph /  3.2km/h 83% 0in /  0.0mm 0.00 W/m2 FEW
03:05 49.6 °F /  9.8 °C 45.1 °F /  7.3 °C 30.1in /  1018.3hPa Calm   1mph /  1.6km/h 84% 0in /  0.0mm 0.00 W/m2 FEW
03:10 49.6 °F /  9.8 °C 45 °F /  7.2 °C 30.1in /  1018.3hPa SW 1mph /  1.6km/h 2mph /  3.2km/h 84% 0in /  0.0mm 0.00 W/m2 FEW
03:15 49.5 °F /  9.7 °C 45 °F /  7.2 °C 30.1in /  1018.3hPa West 1mph /  1.6km/h 2mph /  3.2km/h 84% 0in /  0.0mm 0.00 W/m2 FEW
03:20 49.5 °F /  9.7 °C 44.8 °F /  7.1 °C 30.1in /  1018.3hPa Calm   1mph /  1.6km/h 84% 0in /  0.0mm 0.00 W/m2 FEW
03:25 49.6 °F /  9.8 °C 45 °F /  7.2 °C 30.1in /  1018.3hPa West 1mph /  1.6km/h 2mph /  3.2km/h 84% 0in /  0.0mm 0.00 W/m2 FEW
03:30 49.6 °F /  9.8 °C 45.3 °F /  7.4 °C 30.1in /  1018.3hPa Calm   2mph /  3.2km/h 85% 0in /  0.0mm 0.00 W/m2 FEW
03:35 49.6 °F /  9.8 °C 45.3 °F /  7.4 °C 30.1in /  1018.3hPa SW 1mph /  1.6km/h 4mph /  6.4km/h 85% 0in /  0.0mm 0.00 W/m2 FEW
03:40 49.8 °F /  9.9 °C 45.5 °F /  7.5 °C 30.1in /  1018.3hPa SW 1mph /  1.6km/h 3mph /  4.8km/h 85% 0in /  0.0mm 0.00 W/m2 FEW
03:45 49.8 °F /  9.9 °C 45.7 °F /  7.6 °C 30.1in /  1018.2hPa Calm   2mph /  3.2km/h 85% 0in /  0.0mm 0.00 W/m2 FEW
03:50 49.8 °F /  9.9 °C 45.7 °F /  7.6 °C 30.1in /  1018.3hPa Calm   1mph /  1.6km/h 85% 0in /  0.0mm 0.00 W/m2 FEW
03:55 50 °F /  10.0 °C 45.7 °F /  7.6 °C 30.1in /  1018.3hPa Calm   5mph /  8.0km/h 85% 0in /  0.0mm 0.00 W/m2 FEW
04:00 50 °F /  10.0 °C 45.7 °F /  7.6 °C 30.1in /  1018.2hPa Calm   1mph /  1.6km/h 85% 0in /  0.0mm 0.00 W/m2 FEW
04:05 50 °F /  10.0 °C 45.7 °F /  7.6 °C 30.1in /  1018.2hPa SSE 1mph /  1.6km/h 4mph /  6.4km/h 85% 0in /  0.0mm 0.00 W/m2 FEW
04:10 50.2 °F /  10.1 °C 45.5 °F /  7.5 °C 30.1in /  1018.2hPa Calm   2mph /  3.2km/h 84% 0in /  0.0mm 0.00 W/m2 FEW
04:15 50 °F /  10.0 °C 45.3 °F /  7.4 °C 30.1in /  1018.2hPa Calm   3mph /  4.8km/h 84% 0in /  0.0mm 0.00 W/m2 FEW
04:20 50 °F /  10.0 °C 45.3 °F /  7.4 °C 30.1in /  1018.1hPa Calm   4mph /  6.4km/h 84% 0in /  0.0mm 0.00 W/m2 FEW
04:25 50.2 °F /  10.1 °C 45.3 °F /  7.4 °C 30.1in /  1018.1hPa Calm   3mph /  4.8km/h 84% 0in /  0.0mm 0.00 W/m2 FEW
04:30 50.4 °F /  10.2 °C 45.9 °F /  7.7 °C 30.1in /  1018.0hPa SW 1mph /  1.6km/h 4mph /  6.4km/h 85% 0in /  0.0mm 0.00 W/m2 FEW
04:50 50.4 °F /  10.2 °C 45.7 °F /  7.6 °C 30.1in /  1017.9hPa Calm   2mph /  3.2km/h 84% 0in /  0.0mm 0.00 W/m2 FEW
04:55 50.4 °F /  10.2 °C 45.7 °F /  7.6 °C 30.1in /  1017.8hPa Calm   1mph /  1.6km/h 84% 0in /  0.0mm 0.00 W/m2 FEW
05:00 50.2 °F /  10.1 °C 45.5 °F /  7.5 °C 30.1in /  1017.8hPa Calm   1mph /  1.6km/h 84% 0in /  0.0mm 0.00 W/m2 FEW
05:05 50.2 °F /  10.1 °C 45.5 °F /  7.5 °C 30.1in /  1017.7hPa Calm     84% 0in /  0.0mm 0.00 W/m2 FEW
05:10 50 °F /  10.0 °C 45.3 °F /  7.4 °C 30.1in /  1017.7hPa South 1mph /  1.6km/h 3mph /  4.8km/h 84% 0in /  0.0mm 0.00 W/m2 FEW
05:15 50 °F /  10.0 °C 45.3 °F /  7.4 °C 30.1in /  1017.7hPa South 1mph /  1.6km/h 5mph /  8.0km/h 84% 0in /  0.0mm 0.00 W/m2 FEW
05:20 50.2 °F /  10.1 °C 45.7 °F /  7.6 °C 30.1in /  1017.6hPa Calm   7mph /  11.3km/h 84% 0in /  0.0mm 0.00 W/m2 FEW
05:25 50.4 °F /  10.2 °C 45.9 °F /  7.7 °C 30.1in /  1017.6hPa SSW 2mph /  3.2km/h 5mph /  8.0km/h 84% 0in /  0.0mm 0.00 W/m2 FEW
05:30 50.5 °F /  10.3 °C 45.9 °F /  7.7 °C 30.1in /  1017.6hPa Calm   2mph /  3.2km/h 84% 0in /  0.0mm 0.00 W/m2 FEW
05:35 50.4 °F /  10.2 °C 45.3 °F /  7.4 °C 30.1in /  1017.5hPa Calm   2mph /  3.2km/h 83% 0in /  0.0mm 0.00 W/m2 FEW
05:40 50.4 °F /  10.2 °C 45.3 °F /  7.4 °C 30.1in /  1017.5hPa SSW 1mph /  1.6km/h 3mph /  4.8km/h 83% 0in /  0.0mm 0.00 W/m2 FEW
05:45 50.2 °F /  10.1 °C 45.1 °F /  7.3 °C 30in /  1017.4hPa SW 1mph /  1.6km/h 3mph /  4.8km/h 83% 0in /  0.0mm 0.00 W/m2 FEW
05:50 50.4 °F /  10.2 °C 45.7 °F /  7.6 °C 30in /  1017.4hPa Calm   2mph /  3.2km/h 84% 0in /  0.0mm 0.00 W/m2 FEW
05:55 50.4 °F /  10.2 °C 45.3 °F /  7.4 °C 30in /  1017.4hPa SW 2mph /  3.2km/h 4mph /  6.4km/h 83% 0in /  0.0mm 0.00 W/m2 FEW
06:00 50.4 °F /  10.2 °C 45.3 °F /  7.4 °C 30in /  1017.3hPa SW 1mph /  1.6km/h 4mph /  6.4km/h 83% 0in /  0.0mm 0.00 W/m2 FEW
06:05 50.4 °F /  10.2 °C 45.3 °F /  7.4 °C 30in /  1017.3hPa Calm   2mph /  3.2km/h 83% 0in /  0.0mm 0.00 W/m2 FEW
06:10 50.4 °F /  10.2 °C 45.3 °F /  7.4 °C 30in /  1017.3hPa SSW 2mph /  3.2km/h 6mph /  9.7km/h 83% 0in /  0.0mm 0.00 W/m2 FEW
06:15 50.4 °F /  10.2 °C 45.3 °F /  7.4 °C 30in /  1017.3hPa SSW 2mph /  3.2km/h 8mph /  12.9km/h 83% 0in /  0.0mm 0.00 W/m2 FEW
06:20 50.4 °F /  10.2 °C 45.3 °F /  7.4 °C 30in /  1017.3hPa SSW 1mph /  1.6km/h 4mph /  6.4km/h 83% 0in /  0.0mm 0.00 W/m2 CLR
06:25 50.2 °F /  10.1 °C 45.3 °F /  7.4 °C 30in /  1017.4hPa Calm   4mph /  6.4km/h 83% 0in /  0.0mm 0.00 W/m2 CLR
06:30 50.2 °F /  10.1 °C 45.1 °F /  7.3 °C 30in /  1017.4hPa SW 1mph /  1.6km/h 6mph /  9.7km/h 83% 0in /  0.0mm 0.00 W/m2 CLR
06:35 50.2 °F /  10.1 °C 45.1 °F /  7.3 °C 30in /  1017.4hPa SSW 1mph /  1.6km/h 4mph /  6.4km/h 83% 0in /  0.0mm 0.00 W/m2 CLR
06:40 50.2 °F /  10.1 °C 45.1 °F /  7.3 °C 30in /  1017.4hPa SSW 1mph /  1.6km/h 8mph /  12.9km/h 83% 0in /  0.0mm 0.00 W/m2 CLR
06:45 50.2 °F /  10.1 °C 45.1 °F /  7.3 °C 30in /  1017.4hPa SSW 2mph /  3.2km/h 5mph /  8.0km/h 83% 0in /  0.0mm 0.00 W/m2 CLR
06:50 50.2 °F /  10.1 °C 45.1 °F /  7.3 °C 30in /  1017.4hPa SW 3mph /  4.8km/h 5mph /  8.0km/h 83% 0in /  0.0mm 0.00 W/m2 FEW
06:55 50.2 °F /  10.1 °C 45.1 °F /  7.3 °C 30in /  1017.4hPa SW 2mph /  3.2km/h 6mph /  9.7km/h 83% 0in /  0.0mm 0.00 W/m2 FEW
07:00 50.4 °F /  10.2 °C 45.3 °F /  7.4 °C 30in /  1017.4hPa SSW 1mph /  1.6km/h 9mph /  14.5km/h 83% 0in /  0.0mm 0.00 W/m2 FEW
07:05 50.4 °F /  10.2 °C 45.3 °F /  7.4 °C 30.1in /  1017.5hPa SSW 1mph /  1.6km/h 2mph /  3.2km/h 83% 0in /  0.0mm 0.00 W/m2 FEW
07:10 50.4 °F /  10.2 °C 45.3 °F /  7.4 °C 30in /  1017.4hPa Calm   4mph /  6.4km/h 83% 0in /  0.0mm 0.00 W/m2 FEW
07:15 50.4 °F /  10.2 °C 45.3 °F /  7.4 °C 30.1in /  1017.5hPa Calm   5mph /  8.0km/h 83% 0in /  0.0mm 0.00 W/m2 FEW
07:20 50.4 °F /  10.2 °C 45.3 °F /  7.4 °C 30.1in /  1017.5hPa Calm   3mph /  4.8km/h 83% 0in /  0.0mm 0.00 W/m2 FEW
07:25 50.4 °F /  10.2 °C 45.3 °F /  7.4 °C 30.1in /  1017.5hPa SSW 1mph /  1.6km/h 4mph /  6.4km/h 83% 0in /  0.0mm 0.00 W/m2 FEW
07:30 50.4 °F /  10.2 °C 45.3 °F /  7.4 °C 30.1in /  1017.5hPa SW 1mph /  1.6km/h 5mph /  8.0km/h 83% 0in /  0.0mm 0.00 W/m2 FEW
07:35 50.5 °F /  10.3 °C 45.5 °F /  7.5 °C 30.1in /  1017.5hPa SW 2mph /  3.2km/h 5mph /  8.0km/h 83% 0in /  0.0mm 0.00 W/m2 FEW
07:40 50.5 °F /  10.3 °C 45.7 °F /  7.6 °C 30.1in /  1017.6hPa SSW 2mph /  3.2km/h 7mph /  11.3km/h 83% 0in /  0.0mm 0.00 W/m2 FEW
07:45 50.7 °F /  10.4 °C 45.5 °F /  7.5 °C 30.1in /  1017.5hPa SW 1mph /  1.6km/h 9mph /  14.5km/h 82% 0in /  0.0mm 0.00 W/m2 FEW
07:50 51.1 °F /  10.6 °C 45.9 °F /  7.7 °C 30in /  1017.4hPa SW 3mph /  4.8km/h 10mph /  16.1km/h 82% 0in /  0.0mm 0.00 W/m2 CLR
07:55 51.3 °F /  10.7 °C 45.7 °F /  7.6 °C 30.1in /  1017.5hPa SSW 1mph /  1.6km/h 8mph /  12.9km/h 81% 0in /  0.0mm 0.00 W/m2 CLR
08:00 51.3 °F /  10.7 °C 45.7 °F /  7.6 °C 30in /  1017.4hPa SW 3mph /  4.8km/h 8mph /  12.9km/h 81% 0in /  0.0mm 0.00 W/m2 OVC
08:05 51.6 °F /  10.9 °C 46 °F /  7.8 °C 30in /  1017.4hPa SW 3mph /  4.8km/h 12mph /  19.3km/h 81% 0in /  0.0mm 0.00 W/m2 OVC
08:10 52 °F /  11.1 °C 46 °F /  7.8 °C 30in /  1017.3hPa SW 3mph /  4.8km/h 13mph /  20.9km/h 80% 0in /  0.0mm 0.00 W/m2 OVC
08:15 52.2 °F /  11.2 °C 45.9 °F /  7.7 °C 30in /  1017.3hPa SW 3mph /  4.8km/h 8mph /  12.9km/h 79% 0in /  0.0mm 6.00 W/m2 OVC
08:20 52.2 °F /  11.2 °C 45.9 °F /  7.7 °C 30in /  1017.3hPa SSW 3mph /  4.8km/h 7mph /  11.3km/h 79% 0in /  0.0mm 8.40 W/m2 FEW
08:25 52.2 °F /  11.2 °C 45.9 °F /  7.7 °C 30in /  1017.3hPa SW 2mph /  3.2km/h 6mph /  9.7km/h 79% 0in /  0.0mm 10.80 W/m2 FEW
08:30 52.2 °F /  11.2 °C 45.3 °F /  7.4 °C 30in /  1017.3hPa SW 2mph /  3.2km/h 9mph /  14.5km/h 78% 0in /  0.0mm 14.40 W/m2 FEW
08:35 52 °F /  11.1 °C 45.3 °F /  7.4 °C 30in /  1017.3hPa SW 3mph /  4.8km/h 8mph /  12.9km/h 78% 0in /  0.0mm 16.80 W/m2 FEW
08:40 52.2 °F /  11.2 °C 45.3 °F /  7.4 °C 30in /  1017.3hPa SW 3mph /  4.8km/h 9mph /  14.5km/h 78% 0in /  0.0mm 21.60 W/m2 FEW
08:45 52.2 °F /  11.2 °C 45.5 °F /  7.5 °C 30in /  1017.3hPa SW 5mph /  8.0km/h 9mph /  14.5km/h 78% 0in /  0.0mm 30.00 W/m2 FEW
08:50 52.3 °F /  11.3 °C 45.7 °F /  7.6 °C 30in /  1017.3hPa SW 5mph /  8.0km/h 12mph /  19.3km/h 78% 0in /  0.0mm 36.00 W/m2 FEW
08:55 52.5 °F /  11.4 °C 45.7 °F /  7.6 °C 30in /  1017.3hPa SW 5mph /  8.0km/h 14mph /  22.5km/h 77% 0in /  0.0mm 50.40 W/m2 FEW
09:00 52.9 °F /  11.6 °C 45.9 °F /  7.7 °C 30in /  1017.3hPa SW 5mph /  8.0km/h 13mph /  20.9km/h 77% 0in /  0.0mm 67.20 W/m2 FEW
09:05 53.1 °F /  11.7 °C 46 °F /  7.8 °C 30in /  1017.4hPa SW 5mph /  8.0km/h 12mph /  19.3km/h 77% 0in /  0.0mm 86.40 W/m2 FEW
09:10 53.2 °F /  11.8 °C 45.9 °F /  7.7 °C 30in /  1017.3hPa SW 6mph /  9.7km/h 14mph /  22.5km/h 76% 0in /  0.0mm 103.20 W/m2 FEW
09:15 53.4 °F /  11.9 °C 46 °F /  7.8 °C 30in /  1017.4hPa SW 5mph /  8.0km/h 15mph /  24.1km/h 76% 0in /  0.0mm 122.40 W/m2 FEW
09:20 53.6 °F /  12.0 °C 45.9 °F /  7.7 °C 30in /  1017.3hPa SW 6mph /  9.7km/h 12mph /  19.3km/h 75% 0in /  0.0mm 141.60 W/m2 FEW
09:25 53.8 °F /  12.1 °C 46 °F /  7.8 °C 30in /  1017.4hPa SW 5mph /  8.0km/h 14mph /  22.5km/h 75% 0in /  0.0mm 162.00 W/m2 FEW
09:30 54 °F /  12.2 °C 46 °F /  7.8 °C 30in /  1017.4hPa SW 5mph /  8.0km/h 14mph /  22.5km/h 75% 0in /  0.0mm 181.20 W/m2 FEW
09:35 54.1 °F /  12.3 °C 46 °F /  7.8 °C 30.1in /  1017.5hPa SW 7mph /  11.3km/h 14mph /  22.5km/h 74% 0in /  0.0mm 202.80 W/m2 FEW
09:40 54.1 °F /  12.3 °C 46 °F /  7.8 °C 30.1in /  1017.5hPa SW 7mph /  11.3km/h 12mph /  19.3km/h 74% 0in /  0.0mm 223.20 W/m2 FEW
09:45 54.3 °F /  12.4 °C 46.2 °F /  7.9 °C 30.1in /  1017.6hPa SW 6mph /  9.7km/h 13mph /  20.9km/h 74% 0in /  0.0mm 240.00 W/m2 FEW
09:50 54.5 °F /  12.5 °C 46.4 °F /  8.0 °C 30.1in /  1017.6hPa SW 7mph /  11.3km/h 13mph /  20.9km/h 74% 0in /  0.0mm 261.60 W/m2 FEW
09:55 54.7 °F /  12.6 °C 46 °F /  7.8 °C 30.1in /  1017.6hPa SW 7mph /  11.3km/h 13mph /  20.9km/h 73% 0in /  0.0mm 270.00 W/m2 FEW
10:00 54.7 °F /  12.6 °C 46.2 °F /  7.9 °C 30.1in /  1017.6hPa SW 5mph /  8.0km/h 10mph /  16.1km/h 73% 0in /  0.0mm 301.20 W/m2 FEW
10:05 54.9 °F /  12.7 °C 46.4 °F /  8.0 °C 30.1in /  1017.5hPa SW 9mph /  14.5km/h 14mph /  22.5km/h 73% 0in /  0.0mm 326.40 W/m2 FEW
10:10 55 °F /  12.8 °C 46.6 °F /  8.1 °C 30.1in /  1017.6hPa SW 6mph /  9.7km/h 13mph /  20.9km/h 73% 0in /  0.0mm 348.00 W/m2 FEW
10:15 55.4 °F /  13.0 °C 46.6 °F /  8.1 °C 30.1in /  1017.6hPa SW 3mph /  4.8km/h 9mph /  14.5km/h 72% 0in /  0.0mm 362.40 W/m2 FEW
10:20 55.6 °F /  13.1 °C 46.8 °F /  8.2 °C 30.1in /  1017.6hPa SW 6mph /  9.7km/h 10mph /  16.1km/h 72% 0in /  0.0mm 373.20 W/m2 SCT
10:25 55.8 °F /  13.2 °C 46.9 °F /  8.3 °C 30.1in /  1017.6hPa SW 6mph /  9.7km/h 15mph /  24.1km/h 72% 0in /  0.0mm 394.80 W/m2 SCT
10:30 55.9 °F /  13.3 °C 46.8 °F /  8.2 °C 30.1in /  1017.5hPa SW 6mph /  9.7km/h 12mph /  19.3km/h 71% 0in /  0.0mm 406.80 W/m2 SCT
10:35 55.9 °F /  13.3 °C 46.8 °F /  8.2 °C 30.1in /  1017.6hPa SW 6mph /  9.7km/h 14mph /  22.5km/h 71% 0in /  0.0mm 423.60 W/m2 SCT
10:40 56.1 °F /  13.4 °C 46.6 °F /  8.1 °C 30.1in /  1017.6hPa SW 6mph /  9.7km/h 14mph /  22.5km/h 70% 0in /  0.0mm 440.40 W/m2 SCT
10:45 56.3 °F /  13.5 °C 46.6 °F /  8.1 °C 30.1in /  1017.7hPa SW 7mph /  11.3km/h 14mph /  22.5km/h 70% 0in /  0.0mm 456.00 W/m2 SCT
10:50 56.5 °F /  13.6 °C 46.4 °F /  8.0 °C 30.1in /  1017.7hPa SSW 7mph /  11.3km/h 15mph /  24.1km/h 69% 0in /  0.0mm 465.60 W/m2 FEW
10:55 56.5 °F /  13.6 °C 46.4 °F /  8.0 °C 30.1in /  1017.6hPa SSW 6mph /  9.7km/h 15mph /  24.1km/h 69% 0in /  0.0mm 481.20 W/m2 FEW
11:00 56.7 °F /  13.7 °C 46.6 °F /  8.1 °C 30.1in /  1017.6hPa SW 7mph /  11.3km/h 13mph /  20.9km/h 69% 0in /  0.0mm 493.20 W/m2 FEW
11:05 56.7 °F /  13.7 °C 46.2 °F /  7.9 °C 30.1in /  1017.6hPa SW 9mph /  14.5km/h 15mph /  24.1km/h 68% 0in /  0.0mm 508.80 W/m2 FEW
11:10 56.8 °F /  13.8 °C 46.2 °F /  7.9 °C 30.1in /  1017.6hPa SW 6mph /  9.7km/h 16mph /  25.7km/h 68% 0in /  0.0mm 518.40 W/m2 FEW
11:15 56.8 °F /  13.8 °C 46.4 °F /  8.0 °C 30.1in /  1017.6hPa SW 9mph /  14.5km/h 15mph /  24.1km/h 68% 0in /  0.0mm 531.60 W/m2 FEW
11:20 57 °F /  13.9 °C 46.6 °F /  8.1 °C 30.1in /  1017.6hPa SW 8mph /  12.9km/h 15mph /  24.1km/h 68% 0in /  0.0mm 544.80 W/m2 FEW
11:25 57.2 °F /  14.0 °C 46.8 °F /  8.2 °C 30.1in /  1017.6hPa SSW 6mph /  9.7km/h 13mph /  20.9km/h 68% 0in /  0.0mm 550.80 W/m2 FEW
11:30 57.4 °F /  14.1 °C 46.6 °F /  8.1 °C 30.1in /  1017.6hPa SSW 5mph /  8.0km/h 10mph /  16.1km/h 67% 0in /  0.0mm 561.60 W/m2 FEW
11:35 57.6 °F /  14.2 °C 46.6 °F /  8.1 °C 30.1in /  1017.6hPa SSW 6mph /  9.7km/h 14mph /  22.5km/h 67% 0in /  0.0mm 571.20 W/m2 FEW
11:40 57.6 °F /  14.2 °C 46.6 °F /  8.1 °C 30.1in /  1017.5hPa SSW 6mph /  9.7km/h 10mph /  16.1km/h 67% 0in /  0.0mm 579.60 W/m2 FEW
11:45 57.6 °F /  14.2 °C 46.9 °F /  8.3 °C 30.1in /  1017.5hPa SW 5mph /  8.0km/h 14mph /  22.5km/h 68% 0in /  0.0mm 590.40 W/m2 FEW
11:50 57.6 °F /  14.2 °C 46.8 °F /  8.2 °C 30.1in /  1017.5hPa SW 5mph /  8.0km/h 12mph /  19.3km/h 67% 0in /  0.0mm 598.80 W/m2 FEW
11:55 57.9 °F /  14.4 °C 47.5 °F /  8.6 °C 30in /  1017.4hPa SSW 5mph /  8.0km/h 10mph /  16.1km/h 68% 0in /  0.0mm 603.60 W/m2 FEW
12:00 58.3 °F /  14.6 °C 47.3 °F /  8.5 °C 30in /  1017.4hPa SSW 5mph /  8.0km/h 12mph /  19.3km/h 67% 0in /  0.0mm 603.60 W/m2 FEW
12:05 58.1 °F /  14.5 °C 47.1 °F /  8.4 °C 30in /  1017.3hPa SSW 6mph /  9.7km/h 12mph /  19.3km/h 67% 0in /  0.0mm 622.80 W/m2 FEW
12:10 58.3 °F /  14.6 °C 46.9 °F /  8.3 °C 30in /  1017.2hPa SW 10mph /  16.1km/h 15mph /  24.1km/h 66% 0in /  0.0mm 618.00 W/m2 FEW
12:15 58.3 °F /  14.6 °C 46.9 °F /  8.3 °C 30in /  1017.1hPa SW 5mph /  8.0km/h 13mph /  20.9km/h 66% 0in /  0.0mm 631.20 W/m2 FEW
12:20 58.5 °F /  14.7 °C 47.1 °F /  8.4 °C 30in /  1017.0hPa SSW 6mph /  9.7km/h 12mph /  19.3km/h 66% 0in /  0.0mm 640.80 W/m2 FEW
12:25 58.5 °F /  14.7 °C 46.8 °F /  8.2 °C 30in /  1016.8hPa SSW 5mph /  8.0km/h 12mph /  19.3km/h 65% 0in /  0.0mm 648.00 W/m2 FEW
12:30 58.5 °F /  14.7 °C 46.8 °F /  8.2 °C 30in /  1016.8hPa SSW 6mph /  9.7km/h 14mph /  22.5km/h 65% 0in /  0.0mm 639.60 W/m2 FEW
12:35 58.6 °F /  14.8 °C 46.9 °F /  8.3 °C 30in /  1016.6hPa SSW 7mph /  11.3km/h 13mph /  20.9km/h 65% 0in /  0.0mm 651.60 W/m2 FEW
12:40 58.6 °F /  14.8 °C 46.9 °F /  8.3 °C 30in /  1016.6hPa SW 5mph /  8.0km/h 13mph /  20.9km/h 65% 0in /  0.0mm 648.00 W/m2 FEW
12:45 58.8 °F /  14.9 °C 47.1 °F /  8.4 °C 30in /  1016.5hPa SW 5mph /  8.0km/h 15mph /  24.1km/h 65% 0in /  0.0mm 662.40 W/m2 FEW
12:50 58.8 °F /  14.9 °C 47.1 °F /  8.4 °C 30in /  1016.4hPa SW 6mph /  9.7km/h 13mph /  20.9km/h 65% 0in /  0.0mm 654.00 W/m2 CLR
12:55 59 °F /  15.0 °C 47.1 °F /  8.4 °C 30in /  1016.4hPa SW 5mph /  8.0km/h 10mph /  16.1km/h 65% 0in /  0.0mm 662.40 W/m2 CLR
13:00 59.2 °F /  15.1 °C 46.9 °F /  8.3 °C 30in /  1016.2hPa SSW 7mph /  11.3km/h 12mph /  19.3km/h 64% 0in /  0.0mm 670.80 W/m2 CLR
13:05 59.2 °F /  15.1 °C 46.9 °F /  8.3 °C 30in /  1016.2hPa SW 6mph /  9.7km/h 12mph /  19.3km/h 64% 0in /  0.0mm 662.40 W/m2 CLR
13:10 58.8 °F /  14.9 °C 47.1 °F /  8.4 °C 30in /  1016.1hPa SSW 6mph /  9.7km/h 10mph /  16.1km/h 65% 0in /  0.0mm 662.40 W/m2 CLR
13:15 59.2 °F /  15.1 °C 47.3 °F /  8.5 °C 30in /  1016.0hPa SW 6mph /  9.7km/h 10mph /  16.1km/h 65% 0in /  0.0mm 673.20 W/m2 CLR
13:20 59.2 °F /  15.1 °C 46.9 °F /  8.3 °C 30in /  1016.0hPa SW 5mph /  8.0km/h 12mph /  19.3km/h 64% 0in /  0.0mm 660.00 W/m2 CLR
13:25 59.4 °F /  15.2 °C 47.1 °F /  8.4 °C 30in /  1015.9hPa SW 8mph /  12.9km/h 18mph /  29.0km/h 64% 0in /  0.0mm 670.80 W/m2 CLR
13:30 59.2 °F /  15.1 °C 46.9 °F /  8.3 °C 30in /  1015.8hPa SSW 7mph /  11.3km/h 13mph /  20.9km/h 64% 0in /  0.0mm 668.40 W/m2 CLR
13:35 59.2 °F /  15.1 °C 46.9 °F /  8.3 °C 30in /  1015.8hPa SW 6mph /  9.7km/h 14mph /  22.5km/h 64% 0in /  0.0mm 662.40 W/m2 CLR
13:40 59.4 °F /  15.2 °C 47.1 °F /  8.4 °C 30in /  1015.6hPa SW 6mph /  9.7km/h 14mph /  22.5km/h 64% 0in /  0.0mm 660.00 W/m2 CLR
13:45 59.2 °F /  15.1 °C 47.1 °F /  8.4 °C 30in /  1015.6hPa SSW 6mph /  9.7km/h 14mph /  22.5km/h 64% 0in /  0.0mm 651.60 W/m2 CLR
13:50 59.2 °F /  15.1 °C 46.9 °F /  8.3 °C 30in /  1015.5hPa SSW 6mph /  9.7km/h 12mph /  19.3km/h 64% 0in /  0.0mm 656.40 W/m2 FEW
13:55 59.2 °F /  15.1 °C 47.5 °F /  8.6 °C 30in /  1015.4hPa SSW 5mph /  8.0km/h 13mph /  20.9km/h 65% 0in /  0.0mm 654.00 W/m2 FEW
14:00 59.5 °F /  15.3 °C 47.7 °F /  8.7 °C 30in /  1015.3hPa SW 6mph /  9.7km/h 13mph /  20.9km/h 65% 0in /  0.0mm 648.00 W/m2 FEW
14:05 59.5 °F /  15.3 °C 47.8 °F /  8.8 °C 30in /  1015.2hPa SSW 6mph /  9.7km/h 12mph /  19.3km/h 65% 0in /  0.0mm 643.20 W/m2 FEW
14:10 59.5 °F /  15.3 °C 47.5 °F /  8.6 °C 30in /  1015.2hPa SSW 6mph /  9.7km/h 13mph /  20.9km/h 64% 0in /  0.0mm 639.60 W/m2 FEW
14:15 59.4 °F /  15.2 °C 47.5 °F /  8.6 °C 30in /  1015.2hPa SW 5mph /  8.0km/h 14mph /  22.5km/h 65% 0in /  0.0mm 626.40 W/m2 FEW
14:20 59.4 °F /  15.2 °C 47.7 °F /  8.7 °C 30in /  1015.1hPa SSW 7mph /  11.3km/h 14mph /  22.5km/h 65% 0in /  0.0mm 622.80 W/m2 FEW
14:25 59.4 °F /  15.2 °C 47.7 °F /  8.7 °C 30in /  1015.1hPa SSW 7mph /  11.3km/h 10mph /  16.1km/h 65% 0in /  0.0mm 618.00 W/m2 FEW
14:30 59.4 °F /  15.2 °C 47.7 °F /  8.7 °C 30in /  1015.1hPa SSW 6mph /  9.7km/h 10mph /  16.1km/h 65% 0in /  0.0mm 607.20 W/m2 FEW
14:35 59.5 °F /  15.3 °C 47.7 °F /  8.7 °C 30in /  1015.0hPa SW 7mph /  11.3km/h 14mph /  22.5km/h 65% 0in /  0.0mm 598.80 W/m2 FEW
14:40 59.2 °F /  15.1 °C 46.9 °F /  8.3 °C 30in /  1014.9hPa SW 6mph /  9.7km/h 13mph /  20.9km/h 64% 0in /  0.0mm 592.80 W/m2 FEW
14:45 59.2 °F /  15.1 °C 47.5 °F /  8.6 °C 30in /  1014.9hPa SSW 5mph /  8.0km/h 14mph /  22.5km/h 65% 0in /  0.0mm 584.40 W/m2 FEW
14:50 59.5 °F /  15.3 °C 47.7 °F /  8.7 °C 30in /  1014.9hPa SSW 5mph /  8.0km/h 12mph /  19.3km/h 65% 0in /  0.0mm 576.00 W/m2 FEW
14:55 59.4 °F /  15.2 °C 47.7 °F /  8.7 °C 30in /  1014.9hPa SSW 6mph /  9.7km/h 13mph /  20.9km/h 65% 0in /  0.0mm 567.60 W/m2 FEW
15:00 59.4 °F /  15.2 °C 47.7 °F /  8.7 °C 30in /  1014.9hPa SSW 6mph /  9.7km/h 14mph /  22.5km/h 65% 0in /  0.0mm 553.20 W/m2 FEW
15:05 59.5 °F /  15.3 °C 47.8 °F /  8.8 °C 30in /  1014.8hPa SSW 5mph /  8.0km/h 13mph /  20.9km/h 65% 0in /  0.0mm 544.80 W/m2 FEW
15:10 59.4 °F /  15.2 °C 47.7 °F /  8.7 °C 30in /  1014.8hPa SW 6mph /  9.7km/h 12mph /  19.3km/h 65% 0in /  0.0mm 531.60 W/m2 FEW
15:15 59.2 °F /  15.1 °C 47.8 °F /  8.8 °C 30in /  1014.8hPa SSW 6mph /  9.7km/h 14mph /  22.5km/h 66% 0in /  0.0mm 518.40 W/m2 FEW
15:20 59.4 °F /  15.2 °C 47.8 °F /  8.8 °C 30in /  1014.8hPa SSW 5mph /  8.0km/h 12mph /  19.3km/h 66% 0in /  0.0mm 506.40 W/m2 FEW
15:25 59.4 °F /  15.2 °C 47.8 °F /  8.8 °C 30in /  1014.7hPa SSW 5mph /  8.0km/h 16mph /  25.7km/h 66% 0in /  0.0mm 495.60 W/m2 FEW
15:30 59 °F /  15.0 °C 47.7 °F /  8.7 °C 30in /  1014.6hPa SSW 6mph /  9.7km/h 12mph /  19.3km/h 66% 0in /  0.0mm 483.60 W/m2 FEW
15:35 59.2 °F /  15.1 °C 48 °F /  8.9 °C 30in /  1014.6hPa SSW 6mph /  9.7km/h 12mph /  19.3km/h 67% 0in /  0.0mm 470.40 W/m2 FEW
15:40 59 °F /  15.0 °C 48 °F /  8.9 °C 30in /  1014.4hPa SSW 5mph /  8.0km/h 12mph /  19.3km/h 67% 0in /  0.0mm 453.60 W/m2 FEW
15:45 58.8 °F /  14.9 °C 47.8 °F /  8.8 °C 30in /  1014.4hPa SSW 6mph /  9.7km/h 12mph /  19.3km/h 67% 0in /  0.0mm 436.80 W/m2 FEW
15:50 58.8 °F /  14.9 °C 48.4 °F /  9.1 °C 30in /  1014.4hPa SSW 5mph /  8.0km/h 10mph /  16.1km/h 68% 0in /  0.0mm 426.00 W/m2 CLR
15:55 58.8 °F /  14.9 °C 48.4 °F /  9.1 °C 30in /  1014.4hPa SSW 5mph /  8.0km/h 17mph /  27.4km/h 68% 0in /  0.0mm 406.80 W/m2 CLR
16:00 58.6 °F /  14.8 °C 48.6 °F /  9.2 °C 30in /  1014.4hPa SSW 7mph /  11.3km/h 12mph /  19.3km/h 69% 0in /  0.0mm 396.00 W/m2 CLR
16:05 58.6 °F /  14.8 °C 48.6 °F /  9.2 °C 30in /  1014.4hPa SSW 7mph /  11.3km/h 14mph /  22.5km/h 69% 0in /  0.0mm 375.60 W/m2 CLR
16:10 58.6 °F /  14.8 °C 48.9 °F /  9.4 °C 30in /  1014.5hPa South 5mph /  8.0km/h 12mph /  19.3km/h 70% 0in /  0.0mm 361.20 W/m2 CLR
16:15 58.6 °F /  14.8 °C 48.7 °F /  9.3 °C 30in /  1014.4hPa SSW 6mph /  9.7km/h 14mph /  22.5km/h 70% 0in /  0.0mm 342.00 W/m2 CLR
16:20 58.5 °F /  14.7 °C 49.1 °F /  9.5 °C 30in /  1014.5hPa SSW 3mph /  4.8km/h 12mph /  19.3km/h 71% 0in /  0.0mm 322.80 W/m2 CLR
16:25 58.5 °F /  14.7 °C 48.9 °F /  9.4 °C 30in /  1014.4hPa SSW 6mph /  9.7km/h 13mph /  20.9km/h 71% 0in /  0.0mm 301.20 W/m2 CLR
16:30 58.3 °F /  14.6 °C 48.7 °F /  9.3 °C 30in /  1014.4hPa SSW 6mph /  9.7km/h 13mph /  20.9km/h 71% 0in /  0.0mm 278.40 W/m2 CLR
16:35 57.9 °F /  14.4 °C 48.9 °F /  9.4 °C 30in /  1014.3hPa SSW 6mph /  9.7km/h 15mph /  24.1km/h 72% 0in /  0.0mm 261.60 W/m2 CLR
16:40 57.9 °F /  14.4 °C 48.9 °F /  9.4 °C 30in /  1014.3hPa SSW 5mph /  8.0km/h 12mph /  19.3km/h 72% 0in /  0.0mm 236.40 W/m2 CLR
16:45 57.7 °F /  14.3 °C 49.1 °F /  9.5 °C 30in /  1014.2hPa SSW 5mph /  8.0km/h 12mph /  19.3km/h 73% 0in /  0.0mm 211.20 W/m2 CLR
16:50 57.6 °F /  14.2 °C 48.9 °F /  9.4 °C 30in /  1014.3hPa SSW 5mph /  8.0km/h 13mph /  20.9km/h 73% 0in /  0.0mm 189.60 W/m2 CLR
16:55 57.4 °F /  14.1 °C 48.7 °F /  9.3 °C 30in /  1014.3hPa SW 6mph /  9.7km/h 13mph /  20.9km/h 73% 0in /  0.0mm 156.00 W/m2 CLR
17:00 57.2 °F /  14.0 °C 48.9 °F /  9.4 °C 30in /  1014.3hPa SSW 5mph /  8.0km/h 12mph /  19.3km/h 74% 0in /  0.0mm 133.20 W/m2 CLR
17:05 57 °F /  13.9 °C 48.7 °F /  9.3 °C 30in /  1014.3hPa SSW 3mph /  4.8km/h 10mph /  16.1km/h 74% 0in /  0.0mm 116.40 W/m2 CLR
17:10 56.8 °F /  13.8 °C 49.1 °F /  9.5 °C 30in /  1014.3hPa SSW 5mph /  8.0km/h 12mph /  19.3km/h 75% 0in /  0.0mm 91.20 W/m2 CLR
17:15 56.5 °F /  13.6 °C 48.7 °F /  9.3 °C 30in /  1014.3hPa SSW 3mph /  4.8km/h 12mph /  19.3km/h 75% 0in /  0.0mm 36.00 W/m2 SCT
17:20 55.9 °F /  13.3 °C 48.6 °F /  9.2 °C 30in /  1014.3hPa SSW 3mph /  4.8km/h 10mph /  16.1km/h 76% 0in /  0.0mm 31.20 W/m2 SCT
17:25 55.8 °F /  13.2 °C 48.2 °F /  9.0 °C 30in /  1014.3hPa SSW 5mph /  8.0km/h 10mph /  16.1km/h 76% 0in /  0.0mm 27.60 W/m2 SCT
17:30 55.4 °F /  13.0 °C 48.4 °F /  9.1 °C 30in /  1014.3hPa SSW 5mph /  8.0km/h 12mph /  19.3km/h 77% 0in /  0.0mm 25.20 W/m2 SCT
17:35 55.2 °F /  12.9 °C 48.4 °F /  9.1 °C 30in /  1014.3hPa SSW 3mph /  4.8km/h 9mph /  14.5km/h 78% 0in /  0.0mm 21.60 W/m2 FEW
17:40 55 °F /  12.8 °C 48.4 °F /  9.1 °C 30in /  1014.2hPa SSW 3mph /  4.8km/h 9mph /  14.5km/h 78% 0in /  0.0mm 19.20 W/m2 CLR
17:45 54.9 °F /  12.7 °C 48.6 °F /  9.2 °C 30in /  1014.3hPa SSW 3mph /  4.8km/h 12mph /  19.3km/h 79% 0in /  0.0mm 16.80 W/m2 CLR
17:50 54.9 °F /  12.7 °C 48.4 °F /  9.1 °C 30in /  1014.2hPa SSW 3mph /  4.8km/h 9mph /  14.5km/h 79% 0in /  0.0mm 13.20 W/m2 CLR
17:55 54.7 °F /  12.6 °C 48.6 °F /  9.2 °C 30in /  1014.2hPa SSW 2mph /  3.2km/h 8mph /  12.9km/h 80% 0in /  0.0mm 10.80 W/m2 OVC
18:00 54.5 °F /  12.5 °C 48.6 °F /  9.2 °C 30in /  1014.2hPa SSW 3mph /  4.8km/h 9mph /  14.5km/h 80% 0in /  0.0mm 8.40 W/m2 OVC
18:05 54.3 °F /  12.4 °C 48.4 °F /  9.1 °C 30in /  1014.2hPa SW 3mph /  4.8km/h 8mph /  12.9km/h 80% 0in /  0.0mm 0.00 W/m2 OVC
18:10 54.1 °F /  12.3 °C 48.2 °F /  9.0 °C 30in /  1014.2hPa SW 3mph /  4.8km/h 9mph /  14.5km/h 80% 0in /  0.0mm 0.00 W/m2 OVC
18:15 54.1 °F /  12.3 °C 48 °F /  8.9 °C 30in /  1014.2hPa SSW 2mph /  3.2km/h 8mph /  12.9km/h 80% 0in /  0.0mm 0.00 W/m2 OVC
18:20 54.1 °F /  12.3 °C 48.4 °F /  9.1 °C 30in /  1014.2hPa SSW 2mph /  3.2km/h 6mph /  9.7km/h 81% 0in /  0.0mm 0.00 W/m2 OVC
18:25 54 °F /  12.2 °C 48.4 °F /  9.1 °C 30in /  1014.2hPa SSW 3mph /  4.8km/h 6mph /  9.7km/h 81% 0in /  0.0mm 0.00 W/m2 OVC
18:30 54 °F /  12.2 °C 48.2 °F /  9.0 °C 30in /  1014.2hPa SW 2mph /  3.2km/h 9mph /  14.5km/h 81% 0in /  0.0mm 0.00 W/m2 OVC
18:35 53.8 °F /  12.1 °C 48 °F /  8.9 °C 30in /  1014.3hPa SW 2mph /  3.2km/h 6mph /  9.7km/h 81% 0in /  0.0mm 0.00 W/m2 CLR
18:40 53.8 °F /  12.1 °C 48.4 °F /  9.1 °C 30in /  1014.4hPa SSW 2mph /  3.2km/h 8mph /  12.9km/h 82% 0in /  0.0mm 0.00 W/m2 CLR
18:45 53.8 °F /  12.1 °C 48.4 °F /  9.1 °C 30in /  1014.3hPa SW 2mph /  3.2km/h 7mph /  11.3km/h 82% 0in /  0.0mm 0.00 W/m2 CLR
18:50 53.6 °F /  12.0 °C 48.2 °F /  9.0 °C 30in /  1014.3hPa SW 2mph /  3.2km/h 6mph /  9.7km/h 82% 0in /  0.0mm 0.00 W/m2 CLR
18:55 53.4 °F /  11.9 °C 48 °F /  8.9 °C 30in /  1014.4hPa SW 3mph /  4.8km/h 7mph /  11.3km/h 82% 0in /  0.0mm 0.00 W/m2 CLR
19:00 53.2 °F /  11.8 °C 47.8 °F /  8.8 °C 30in /  1014.4hPa SW 3mph /  4.8km/h 8mph /  12.9km/h 82% 0in /  0.0mm 0.00 W/m2 CLR
19:05 53.4 °F /  11.9 °C 48.4 °F /  9.1 °C 30in /  1014.4hPa SW 2mph /  3.2km/h 5mph /  8.0km/h 83% 0in /  0.0mm 0.00 W/m2 CLR
19:10 53.4 °F /  11.9 °C 48.4 °F /  9.1 °C 30in /  1014.5hPa SW 3mph /  4.8km/h 9mph /  14.5km/h 83% 0in /  0.0mm 0.00 W/m2 CLR
19:15 53.2 °F /  11.8 °C 48.4 °F /  9.1 °C 30in /  1014.5hPa SW 5mph /  8.0km/h 9mph /  14.5km/h 83% 0in /  0.0mm 0.00 W/m2 CLR
19:20 53.2 °F /  11.8 °C 48.4 °F /  9.1 °C 30in /  1014.5hPa SSW 2mph /  3.2km/h 6mph /  9.7km/h 83% 0in /  0.0mm 0.00 W/m2 CLR
19:25 53.2 °F /  11.8 °C 48.4 °F /  9.1 °C 30in /  1014.5hPa SSW 3mph /  4.8km/h 9mph /  14.5km/h 83% 0in /  0.0mm 0.00 W/m2 CLR
19:30 53.4 °F /  11.9 °C 48.4 °F /  9.1 °C 30in /  1014.6hPa SSW 1mph /  1.6km/h 9mph /  14.5km/h 83% 0in /  0.0mm 0.00 W/m2 CLR
19:35 53.2 °F /  11.8 °C 48.4 °F /  9.1 °C 30in /  1014.6hPa SSW 2mph /  3.2km/h 6mph /  9.7km/h 83% 0in /  0.0mm 0.00 W/m2 CLR
19:40 53.2 °F /  11.8 °C 48.2 °F /  9.0 °C 30in /  1014.6hPa SSW 2mph /  3.2km/h 5mph /  8.0km/h 83% 0in /  0.0mm 0.00 W/m2 CLR
19:45 53.1 °F /  11.7 °C 48 °F /  8.9 °C 30in /  1014.6hPa SW 1mph /  1.6km/h 3mph /  4.8km/h 83% 0in /  0.0mm 0.00 W/m2 CLR
19:50 53.1 °F /  11.7 °C 48 °F /  8.9 °C 30in /  1014.6hPa SSW 1mph /  1.6km/h 4mph /  6.4km/h 83% 0in /  0.0mm 0.00 W/m2 CLR
19:55 52.9 °F /  11.6 °C 47.8 °F /  8.8 °C 30in /  1014.6hPa South 2mph /  3.2km/h 7mph /  11.3km/h 83% 0in /  0.0mm 0.00 W/m2 CLR
Juneau County Weather
Compliments of Weather Underground - 13 mb

past weather